Norton, KS

6:05 AM CDT on April 28, 2015 (GMT -0500)
NonFedAWOS | | Change Station
CLOSE
Current Station
Personal Weather Station
Location: Norton, KS
Elevation: 2382 ft
Nearby Weather Stations

Elev 2382 ft 39.85 °N, 99.89 °W | Updated 15 minutes ago

Partly Cloudy
Partly Cloudy
39 °F
Feels Like 34 °F
N
7
Wind Variable Wind from North
Gusts 0.0 mph

Today
High -- | Low -- °F
--% Chance of Precip.
Yesterday
High -- | Low -- °F
Precip. -- in
6:44 AM 8:30 PM
Waxing Gibbous, 73% visible
Pressure 30.25 in
Visibility 9.0 miles
Clouds Clear
Windchill 34 °F
Dew Point 34 °F
Humidity 81%
Rainfall in
Snow Depth Not available.
UV 0 out of 12
Pollen 9.60 out of 12
Air Quality Not available.
Flu Activity Sporadic
METAR KHLC 281053Z AUTO 35013KT 9SM CLR 06/02 A3024 RMK AO2 SLP241 T00560017

More Conditions Fewer Conditions

Pressure 30.25 in
Visibility 9.0 miles
Clouds Clear
Windchill 34 °F
Dew Point 34 °F
Humidity 81%
Rainfall in
Snow Depth Not available.
UV 0 out of 12
Pollen 9.60 out of 12
Air Quality Not available.
Flu Activity Sporadic
METAR KHLC 281053Z AUTO 35013KT 9SM CLR 06/02 A3024 RMK AO2 SLP241 T00560017

More Conditions Fewer Conditions

10-Day Weather Forecast

Almanac

Astronomy

Apr. 28, 2015 Rise Set
Actual Time
Civil Twilight
Nautical Twilight
Astronomical Twilight
Moon
Length of Visible Light
Length of Day
Tomorrow will be .
, % of the Moon is Illuminated

Today's Extremes

State Highs State Lows

Community

WunderPhotos

Upload Photos

1,817,603 photos uploaded!

WunderBlogs® & News

Nearby

Air Quality

  Air Quality AQ Index Pollutant
Not available.

Snow Depth

Station Depth Elevation

Earthquake Activity

City Distance Mag. Time & Date
Minimum magnitude displayed is 2.5.

Coastal Water Temperatures

Place Temperature

Stations

Nearby Weather Stations

Station Location Temp. Windchill Dew Point Humidity Wind Precip. Elev Updated Type